x

Fred Howard Park, Fl (fhpf1) Weather Station

1:54am - Tue 24th Apr 2018 All times are EDT. -4 hours from GMT.

  • Wind
    10mph, 13mph gusts
  • Air Temp 74°f
  • Sea Pressure 1015.1mb
  • Fred Howard Park, Fl
  • Fred Howard Park, Fl

More Historic Weather Station data

Upgrade to MSW Pro to gain access to the past 30 days of data for over 8000 Wavebouys and Weather Stations around the globe.

Join

Comparision Forecast

View Surf forecast
   
Tue 04/24 1:54am 10 13 mph 1015.1mb 74f
1:48am 10 13 mph 1015.1mb 74f
12:54am 6 8 mph 1015.4mb 74f
12:48am 6 7 mph 1015.5mb 74f
Mon 04/23 11:54pm 7 9 mph 1015.7mb 74f
11:48pm 7 8 mph 1015.8mb 74f
10:54pm 9 11 mph 1015.8mb 75f
10:48pm 8 11 mph 1015.9mb 75f
8:54pm 13 14 mph 1015.1mb 76f
8:48pm 13 17 mph 1015.1mb 76f
7:54pm 14 16 mph 1014.6mb 76f
7:48pm 15 16 mph 1014.5mb 76f
6:54pm 15 17 mph 1014.3mb 76f
6:48pm 16 20 mph 1014.3mb 76f
5:54pm 18 23 mph 1014.2mb 77f
5:48pm 18 22 mph 1014.2mb 77f
4:54pm 18 23 mph 1014.4mb 77f
4:48pm 21 23 mph 1014.3mb 77f
3:54pm 21 23 mph 1015.1mb 77f
3:48pm 20 23 mph 1015.2mb 77f
2:54pm 21 23 mph 1016mb 77f
2:48pm 20 23 mph 1016.3mb 77f
1:54pm 21 24 mph 1016.6mb 77f
1:48pm 21 23 mph 1016.6mb 77f
12:54pm 20 23 mph 1017mb 78f
12:48pm 20 22 mph 1017mb 78f
11:54am 16 20 mph 1017.4mb 77f
11:48am 15 17 mph 1017.2mb 77f
10:54am 14 16 mph 1017.4mb 76f
10:48am 13 16 mph 1017.2mb 76f
9:54am 10 11 mph 1017.1mb 75f
9:48am 10 11 mph 1017.2mb 75f
8:54am 11 15 mph 1017.7mb 74f
7:54am 9 11 mph 1017.3mb 74f
7:48am 9 11 mph 1017.2mb 74f
6:54am 10 11 mph 1016.7mb 74f
6:48am 10 13 mph 1016.7mb 74f
5:54am 8 9 mph 1015.9mb 74f
5:48am 8 9 mph 1015.8mb 74f
4:54am 11 16 mph 1015.7mb 74f
4:48am 13 14 mph 1015.8mb 74f
3:54am 14 16 mph 1015.8mb 74f
3:48am 13 16 mph 1015.7mb 74f
2:54am 16 20 mph 1016mb 74f
2:48am 15 17 mph 1016mb 74f
1:54am 13 16 mph 1016.8mb 73f
1:48am 13 17 mph 1016.9mb 73f
12:54am 13 16 mph 1017.4mb 72f
12:48am 13 15 mph 1017.5mb 72f
Sun 04/22 11:54pm 13 15 mph 1017.6mb 72f
11:48pm 13 15 mph 1017.7mb 72f
10:54pm 7 8 mph 1018.2mb 75f
10:48pm 6 8 mph 1018.2mb 75f
9:54pm 9 11 mph 1017.7mb 74f
9:48pm 10 13 mph 1017.7mb 74f
8:54pm 13 16 mph 1018mb 73f
8:48pm 16 21 mph 1017.8mb 74f
7:54pm 10 20 mph 1017mb 77f
7:48pm 3 9 mph 1016.6mb 77f
6:54pm 5 6 mph 1015.6mb 78f
6:48pm 5 7 mph 1015.4mb 78f
5:54pm 10 11 mph 1015.2mb 79f
5:48pm 9 9 mph 1015mb 79f
4:54pm 7 9 mph 1015.7mb 83f
4:48pm 8 11 mph 1015.8mb 84f
3:54pm 10 15 mph 1016.9mb 84f
3:48pm 11 17 mph 1017mb 85f
2:54pm 8 11 mph 1018.1mb 84f
2:48pm 7 11 mph 1018.3mb 85f
1:54pm 11 15 mph 1019mb 82f
1:48pm 14 18 mph 1019.1mb 83f
12:54pm 14 18 mph 1020mb 79f
11:54am 14 20 mph 1020.7mb 79f
11:48am 15 21 mph 1020.8mb 78f
10:54am 13 16 mph 1021.2mb 76f
10:48am 15 22 mph 1021.2mb 77f
9:54am 15 18 mph 1021mb 75f
9:48am 15 21 mph 1021mb 75f
8:54am 15 21 mph 1020.7mb 73f
8:48am 15 20 mph 1020.6mb 73f
7:54am 11 15 mph 1020.3mb 72f
7:48am 13 16 mph 1020.3mb 72f
6:54am 11 16 mph 1019.9mb 72f
6:48am 10 14 mph 1019.8mb 72f
5:54am 11 14 mph 1019.2mb 72f
5:48am 11 15 mph 1019.2mb 72f
4:54am 9 11 mph 1019.5mb 72f
4:48am 10 13 mph 1019.5mb 72f
3:54am 15 21 mph 1019.3mb 72f
3:48am 13 18 mph 1019.4mb 72f
2:54am 17 22 mph 1020mb 73f
2:48am 16 21 mph 1020.1mb 73f
1:54am 13 16 mph 1020.6mb 73f
1:48am 13 17 mph 1020.7mb 73f
12:54am 11 15 mph 1020.9mb 73f
12:48am 13 16 mph 1020.8mb 74f
Sat 04/21 9:54pm 16 20 mph 1021.1mb 74f
9:48pm 16 21 mph 1021mb 74f
8:54pm 7 8 mph 1020.3mb 74f
8:48pm 8 8 mph 1020.3mb 75f
7:54pm 13 17 mph 1020.3mb 76f
7:48pm 15 20 mph 1020.1mb 76f
6:54pm 5 7 mph 1018.8mb 80f
6:48pm 7 8 mph 1018.8mb 80f
5:54pm 8 9 mph 1018.6mb 80f
5:48pm 8 9 mph 1018.6mb 79f
4:54pm 11 14 mph 1018.5mb 80f
4:48pm 11 14 mph 1018.6mb 79f
3:54pm 14 17 mph 1018.9mb 85f
3:48pm 9 14 mph 1019mb 84f
2:54pm 10 17 mph 1019.6mb 84f
2:48pm 13 16 mph 1019.6mb 83f
1:54pm 8 11 mph 1020.3mb 81f
1:48pm 8 11 mph 1020.4mb 81f
12:54pm 10 15 mph 1020.9mb 80f
12:48pm 10 16 mph 1021mb 80f
11:54am 15 20 mph 1021.6mb 79f
11:48am 15 20 mph 1021.6mb 79f
10:54am 16 23 mph 1021.2mb 77f
10:48am 14 18 mph 1021.2mb 77f
9:54am 14 17 mph 1021.1mb 73f
9:48am 13 16 mph 1021.1mb 73f
8:54am 15 21 mph 1021.1mb 70f
8:48am 13 17 mph 1021.1mb 70f
7:54am 11 14 mph 1020.7mb 66f
7:48am 10 14 mph 1020.7mb 66f
6:54am 11 14 mph 1020.6mb 66f
6:48am 9 11 mph 1020.7mb 67f